Tiempo atmosférico en la estación meteorológica de Villafranca De Los Barros, Badajoz (430 m.)



Fecha
DESCASC
Temp. máxima en grados centígrados (hora)
DESCASC
Temp. mínima en grados centígrados (hora)
DESCASC
Temp. media en grados centígrados
DESCASC
Racha de viento máxima en m/sg (hora)
DESCASC
Velocidad máxima media en intervalos de 10 minutos(hora)
DESCASC
Precipitaciones diarias en mm
DESCASC
Precipitaciones de 00:00 a 06:00 en mm
DESCASC
Precipitaciones de 06:00 a 12:00 en mm
DESCASC
Precipitaciones de 12:00 a 18:00 en mm
DESCASC
Precipitaciones de 18:00 a 24:00 en mm
DESCASC
05-12-2019 14.3 (15:40) 2.9 (07:20) 8.6 10.56 (14:50) 6.67 (14:50) 0 0 0 0 0
04-12-2019 11 (14:30) 5.4 (01:50) 8.2 5 (14:10) 3.33 (15:10) 0 0 0 0 0
03-12-2019 13.5 (15:00) 5.4 (00:00) 9.5 8.61 (02:40) 5.56 (02:40) 0 0 0 0 0
02-12-2019 13.2 (14:00) 7.8 (00:00) 10.5 12.22 (14:30) 8.06 (14:00) 0.8 0.8 0 0 0
01-12-2019 13.4 (14:30) 6 (00:00) 9.7 8.61 (11:40) 6.11 (12:10) 2.6 0 1.6 0.4 0.6
30-11-2019 15.9 (16:10) 8.8 (00:00) 12.3 10.28 (20:20) 6.67 (20:30) 0.8 0 0 0 0.8
29-11-2019 17.5 (15:50) 9.6 (00:00) 13.6 6.39 (15:10) 4.17 (04:10) 0 0 0 0 0
28-11-2019 16.1 (15:20) 7.5 (00:00) 11.8 7.5 (14:20) 5 (13:30) 0 0 0 0 0
27-11-2019 16.1 (15:00) 10.1 (00:00) 13.1 9.72 (12:40) 7.22 (12:40) 0.4 0.4 0 0 0
26-11-2019 18.3 (14:20) 10 (00:00) 14.1 14.17 (15:00) 9.72 (15:00) 0.8 0 0 0 0.8
25-11-2019 18.1 (14:30) 11.4 (00:00) 14.8 10.83 (06:40) 6.94 (04:10) 0.4 0.2 0.2 0 0
24-11-2019 13.9 (15:10) 5.8 (00:00) 9.8 8.06 (23:10) 5.28 (16:10) 0 0 0 0 0
23-11-2019 13.1 (16:10) 7.4 (00:00) 10.3 16.67 (01:00) 10.83 (01:00) 0 0 0 0 0
22-11-2019 15.4 (14:40) 9.2 (00:00) 12.3 18.33 (11:50) 12.78 (12:00) 7 0.2 1 5.8 0
21-11-2019 13.6 (17:10) 8.4 (00:00) 11 6.11 (08:00) 3.89 (15:30) 4.8 0 4 0.8 0
20-11-2019 12.7 (16:20) 5.1 (00:00) 8.9 9.17 (10:40) 6.11 (10:20) 17.8 0 12.6 0.6 4.6
19-11-2019 13.6 (14:30) 1.4 (00:00) 7.5 4.17 (16:40) 2.78 (16:50) 0 0 0 0 0
18-11-2019 12.5 (17:00) 4.1 (00:00) 8.3 10 (01:10) 6.39 (01:10) 0.2 0.2 0 0 0
17-11-2019 14.4 (16:00) 5.1 (00:00) 9.7 11.94 (23:00) 6.67 (21:30) 8.2 0.2 0.8 1.6 5.6
16-11-2019 12.1 (16:50) 1 (00:00) 6.6 7.5 (18:10) 5.56 (18:10) 0 0 0 0 0
15-11-2019 11.1 (15:40) 3.9 (00:00) 7.5 11.11 (11:30) 6.94 (11:30) 0 0 0 0 0
14-11-2019 11.1 (15:50) 6.8 (00:00) 9 14.72 (07:40) 10.28 (15:10) 4 0 4 0 0
13-11-2019 18.7 (15:10) 9.8 (00:00) 14.3 11.39 (13:10) 7.78 (11:40) 0 0 0 0 0
12-11-2019 15.6 (16:10) 6.7 (00:00) 11.2 10.83 (12:50) 6.94 (14:40) 0 0 0 0 0
11-11-2019 16.1 (15:50) 9 (00:40) 12.6 9.17 (21:10) 6.11 (14:40) 0.6 0.6 0 0 0
10-11-2019 13.2 (13:00) 7.4 (00:00) 10.3 13.61 (11:30) 8.89 (11:30) 0 0 0 0 0
09-11-2019 15 (15:10) 3.1 (00:00) 9 10.83 (23:50) 7.22 (23:50) 0 0 0 0 0
08-11-2019 14.1 (15:40) 6.8 (00:00) 10.5 10 (01:30) 6.11 (03:50) 0 0 0 0 0
07-11-2019 15.4 (15:20) 9 (00:00) 12.2 13.61 (16:30) 8.89 (16:30) 1.8 0.2 1.6 0 0
06-11-2019 16.7 (14:50) 7.9 (00:00) 12.3 10.83 (16:20) 6.67 (15:30) 0 0 0 0 0

Gráficas

Temp. máximas Temp. mínimas Temp. medias Precipitaciones Rachas de viento máximas Velocidades máximas media en intervalos de 10 minutos

Datos horarios

Fecha y hora oficial Temperatura (ºC) Velocidad del viento (km/h) Dirección del viento Racha (km/h) Dirección de racha Precipitación (mm) Presión (hPa) Tendencia (hPa) Humedad (%)
2019-12-05 23:00:00 9.5 8 Nordeste 16 Nordeste 0 -- -- 81
2019-12-05 22:00:00 10 9 Nordeste 17 Este 0 -- -- 78
2019-12-05 21:00:00 11.1 8 Este 26 Nordeste 0 -- -- 73
2019-12-05 20:00:00 12.2 14 Este 26 Este 0 -- -- 68
2019-12-05 19:00:00 12.3 10 Este 23 Este 0 -- -- 66
2019-12-05 18:00:00 12.9 17 Este 27 Este 0 -- -- 66
2019-12-05 17:00:00 13.4 14 Nordeste 33 Nordeste 0 -- -- 62
2019-12-05 16:00:00 14.3 24 Este 37 Este 0 -- -- 59
2019-12-05 15:00:00 14 22 Este 38 Este 0 -- -- 62
2019-12-05 14:00:00 13.6 22 Nordeste 35 Este 0 -- -- 63
2019-12-05 13:00:00 13.3 14 Nordeste 26 Este 0 -- -- 66
2019-12-05 12:00:00 11.8 10 Nordeste 19 Este 0 -- -- 74
2019-12-05 11:00:00 8.7 0 Calma 5 Norte 0 -- -- 94
2019-12-05 10:00:00 7.1 0 Calma 5 Sur 0 -- -- 100
2019-12-05 09:00:00 4.2 0 Calma 4 Noroeste 0 -- -- 99
2019-12-05 08:00:00 3.3 0 Calma 4 Oeste 0 -- -- 99
2019-12-05 07:00:00 3.1 0 Calma 4 Sur 0 -- -- 98
2019-12-05 06:00:00 4.2 0 Calma 6 Sudoeste 0 -- -- 98
2019-12-05 05:00:00 4.5 0 Calma 4 Norte 0 -- -- 97
2019-12-05 04:00:00 6.4 4 Norte 6 Sudoeste 0 -- -- 96
2019-12-05 03:00:00 7.9 4 Norte 6 Noroeste 0 -- -- 96
2019-12-05 02:00:00 8.6 3 Noroeste 6 Noroeste 0 -- -- 95
2019-12-05 01:00:00 8.7 2 Noroeste 5 Noroeste 0 -- -- 96
2019-12-05 00:00:00 8.6 0 Calma 6 Norte 0 -- -- 95
2019-12-04 23:00:00 8.4 4 Noroeste 9 Noroeste 0 -- -- 91
2019-12-04 22:00:00 9 4 Noroeste 6 Noroeste 0 -- -- 90
2019-12-04 21:00:00 9.3 3 Noroeste 6 Norte 0 -- -- 87
2019-12-04 20:00:00 9.6 4 Noroeste 6 Noroeste 0 -- -- 85
2019-12-04 19:00:00 9.6 2 Noroeste 6 Norte 0 -- -- 85
2019-12-04 18:00:00 10.5 5 Norte 12 Norte 0 -- -- 78
2019-12-04 17:00:00 10.9 6 Norte 13 Noroeste 0 -- -- 76
2019-12-04 16:00:00 10.9 8 Noroeste 18 Norte 0 -- -- 76
2019-12-04 15:00:00 11 10 Norte 18 Norte 0 -- -- 74
2019-12-04 14:00:00 10.9 8 Norte 13 Norte 0 -- -- 82
2019-12-04 13:00:00 10.4 7 Norte 10 Norte 0 -- -- 82
2019-12-04 12:00:00 10 2 Este 10 Sudeste 0 -- -- 86
2019-12-04 11:00:00 8.7 4 Sudeste 9 Sudoeste 0 -- -- 92
2019-12-04 10:00:00 7.2 5 Sudoeste 7 Sudoeste 0 -- -- 98
2019-12-04 09:00:00 6.5 0 Calma 9 Sudoeste 0 -- -- 98
2019-12-04 08:00:00 6.4 3 Sudoeste 4 Sudoeste 0 -- -- 98
2019-12-04 07:00:00 5.9 2 Sudoeste 6 Sudoeste 0 -- -- 97
2019-12-04 06:00:00 6.6 0 Calma 4 Sudoeste 0 -- -- 95
2019-12-04 05:00:00 7.4 0 Calma 7 Sudoeste 0 -- -- 95
2019-12-04 04:00:00 7.1 0 Calma 4 Sudoeste 0 -- -- 96
2019-12-04 03:00:00 6.6 3 Sudoeste 6 Sudoeste 0 -- -- 97
2019-12-04 02:00:00 5.5 0 Calma 4 Oeste 0 -- -- 96
2019-12-04 01:00:00 6.6 3 Sudeste 6 Sur 0 -- -- 92
2019-12-04 00:00:00 7.7 0 Calma 3 Oeste 0 -- -- 92
2019-12-03 23:00:00 7 0 Calma 6 Sudoeste 0 -- -- 93
2019-12-03 22:00:00 7.8 2 Este 8 Nordeste 0 -- -- 84
2019-12-03 21:00:00 9.1 2 Este 12 Este 0 -- -- 82
2019-12-03 20:00:00 10.7 4 Nordeste 11 Este 0 -- -- 77
2019-12-03 19:00:00 11.6 10 Este 20 Este 0 -- -- 73
2019-12-03 18:00:00 12.2 7 Este 24 Este 0 -- -- 71
2019-12-03 17:00:00 12.8 15 Nordeste 24 Nordeste 0 -- -- 69
2019-12-03 16:00:00 13.3 13 Nordeste 24 Nordeste 0 -- -- 67
2019-12-03 15:00:00 13.5 17 Nordeste 27 Nordeste 0 -- -- 68
2019-12-03 14:00:00 13.4 17 Este 30 Nordeste 0 -- -- 67
2019-12-03 13:00:00 12.6 14 Nordeste 24 Nordeste 0 -- -- 71
2019-12-03 12:00:00 11.7 7 Nordeste 18 Nordeste 0 -- -- 74
2019-12-03 11:00:00 10.3 6 Nordeste 15 Norte 0 -- -- 77
2019-12-03 10:00:00 9.1 4 Nordeste 16 Nordeste 0 -- -- 78
2019-12-03 09:00:00 7.1 6 Nordeste 17 Sudeste 0 -- -- 83
2019-12-03 08:00:00 6.2 4 Nordeste 17 Nordeste 0 -- -- 86
2019-12-03 07:00:00 5.5 10 Norte 13 Norte 0 -- -- 91
2019-12-03 06:00:00 6.5 5 Norte 18 Nordeste 0 -- -- 88
2019-12-03 05:00:00 8.7 14 Nordeste 23 Nordeste 0 -- -- 79
2019-12-03 04:00:00 8.7 8 Nordeste 22 Este 0 -- -- 83
2019-12-03 03:00:00 9.1 12 Nordeste 31 Nordeste 0 -- -- 82
2019-12-03 02:00:00 8.2 4 Norte 15 Nordeste 0 -- -- 86
2019-12-03 01:00:00 9.2 10 Este 15 Nordeste 0 -- -- 82
2019-12-03 00:00:00 9.2 6 Este 19 Este 0 -- -- 82
2019-12-02 23:00:00 9.5 9 Este 23 Este 0 -- -- 82
2019-12-02 22:00:00 9.7 14 Este 26 Este 0 -- -- 80
2019-12-02 21:00:00 10.2 15 Este 28 Nordeste 0 -- -- 79
2019-12-02 20:00:00 10.5 15 Nordeste 27 Nordeste 0 -- -- 79
2019-12-02 19:00:00 10 12 Nordeste 28 Nordeste 0 -- -- 80
2019-12-02 18:00:00 11 16 Este 44 Nordeste 0 -- -- 76
2019-12-02 17:00:00 11.7 21 Nordeste 37 Este 0 -- -- 72
2019-12-02 16:00:00 12.3 26 Nordeste 40 Nordeste 0 -- -- 70
2019-12-02 15:00:00 12.1 24 Nordeste 44 Nordeste 0 -- -- 74
2019-12-02 14:00:00 13.2 29 Este 43 Este 0 -- -- 70
2019-12-02 13:00:00 11.8 22 Nordeste 38 Este 0 -- -- 81
2019-12-02 12:00:00 10.9 22 Nordeste 37 Nordeste 0 -- -- 83
2019-12-02 11:00:00 10.2 21 Este 36 Este 0 -- -- 86
2019-12-02 10:00:00 8.7 14 Nordeste 26 Nordeste 0 -- -- 94
2019-12-02 09:00:00 8.1 11 Nordeste 22 Nordeste 0 -- -- 96
2019-12-02 08:00:00 8.2 13 Nordeste 24 Nordeste 0 -- -- 95
2019-12-02 07:00:00 7.9 9 Nordeste 18 Nordeste 0 -- -- 97
2019-12-02 06:00:00 7.8 9 Norte 18 Nordeste 0 -- -- 96
2019-12-02 05:00:00 7.9 9 Norte 14 Norte 0 -- -- 99
2019-12-02 04:00:00 7.8 6 Norte 14 Norte 0 -- -- 99
2019-12-02 03:00:00 7.8 10 Norte 14 Norte 0.2 -- -- 99
2019-12-02 02:00:00 8 6 Norte 14 Norte 0 -- -- 98
2019-12-02 01:00:00 8.4 7 Nordeste 16 Nordeste 0.6 -- -- 98
2019-12-02 00:00:00 8.7 9 Nordeste 16 Nordeste 0.2 -- -- 96
2019-12-01 23:00:00 9.1 6 Nordeste 13 Nordeste 0 -- -- 96
2019-12-01 22:00:00 9.4 5 Nordeste 13 Este 0 -- -- 97
2019-12-01 21:00:00 9.8 6 Este 12 Este 0.2 -- -- 97
2019-12-01 20:00:00 10.2 4 Oeste 12 Sudoeste 0.2 -- -- 94
2019-12-01 19:00:00 10.4 6 Sudoeste 17 Sudoeste 0 -- -- 91
2019-12-01 18:00:00 10.8 8 Sudoeste 20 Sudoeste 0.4 -- -- 89
2019-12-01 17:00:00 11.6 14 Sudoeste 27 Oeste 0 -- -- 86
2019-12-01 16:00:00 13 15 Sudoeste 30 Oeste 0 -- -- 73
2019-12-01 15:00:00 13.1 19 Oeste 29 Oeste 0 -- -- 75
2019-12-01 14:00:00 12.7 15 Oeste 26 Oeste 0 -- -- 83
2019-12-01 13:00:00 12.1 15 Oeste 31 Oeste 0 -- -- 85
2019-12-01 12:00:00 11 14 Oeste 31 Oeste 1.6 -- -- 93
2019-12-01 11:00:00 11.4 19 Sudoeste 28 Sudoeste 0 -- -- 88
2019-12-01 10:00:00 10.9 15 Sudoeste 23 Sudoeste 0 -- -- 89
2019-12-01 09:00:00 10.1 12 Sudoeste 18 Sudoeste 0 -- -- 91
2019-12-01 08:00:00 9.7 8 Sudoeste 21 Sudoeste 0 -- -- 93
2019-12-01 07:00:00 9.5 12 Sudoeste 18 Sudoeste 0 -- -- 92
2019-12-01 06:00:00 8.8 11 Sur 19 Sudoeste 0 -- -- 94
2019-12-01 05:00:00 7.5 8 Sudoeste 15 Sudoeste 0 -- -- 95
2019-12-01 04:00:00 6 5 Sudoeste 12 Sudoeste 0 -- -- 97
2019-12-01 03:00:00 6.7 6 Sur 8 Sur 0 -- -- 96
2019-12-01 02:00:00 8.1 7 Sudoeste 12 Oeste 0 -- -- 94
2019-12-01 01:00:00 9.5 8 Oeste 15 Oeste 0 -- -- 93
2019-12-01 00:00:00 10.1 11 Oeste 18 Oeste 0 -- -- 93
2019-11-30 23:00:00 11.1 7 Oeste 14 Oeste 0 -- -- 92
2019-11-30 22:00:00 11.5 10 Oeste 28 Oeste 0 -- -- 92
2019-11-30 21:00:00 12 19 Oeste 37 Noroeste 0.8 -- -- 96
2019-11-30 20:00:00 13.9 19 Sudoeste 27 Oeste 0 -- -- 88
2019-11-30 19:00:00 14.4 17 Sudoeste 25 Sudoeste 0 -- -- 80
2019-11-30 18:00:00 14.7 17 Sudoeste 26 Sudoeste 0 -- -- 78
2019-11-30 17:00:00 15.4 18 Sudoeste 32 Sudoeste 0 -- -- 74
2019-11-30 16:00:00 15.4 21 Sudoeste 31 Sudoeste 0 -- -- 74
2019-11-30 15:00:00 15 18 Sudoeste 27 Sudoeste 0 -- -- 74
2019-11-30 14:00:00 14.8 17 Sudoeste 27 Sudoeste 0 -- -- 73
2019-11-30 13:00:00 14.8 14 Sudoeste 23 Sudoeste 0 -- -- 77
2019-11-30 12:00:00 14.4 10 Sudoeste 17 Sudoeste 0 -- -- 77
2019-11-30 11:00:00 13.4 10 Sudoeste 15 Sudoeste 0 -- -- 86
2019-11-30 10:00:00 12 6 Sudoeste 12 Sudoeste 0 -- -- 92
2019-11-30 09:00:00 10.4 6 Sudoeste 10 Sudoeste 0 -- -- 95
2019-11-30 08:00:00 9 4 Sur 6 Sur 0 -- -- 97
2019-11-30 07:00:00 9.7 5 Sur 10 Sur 0 -- -- 95
2019-11-30 06:00:00 10.8 7 Sur 9 Sur 0 -- -- 95
2019-11-30 05:00:00 9.9 3 Sur 5 Sudeste 0 -- -- 97
2019-11-30 04:00:00 9.1 4 Sur 9 Sur 0 -- -- 95
2019-11-30 03:00:00 10.3 0 Calma 3 Sudoeste 0 -- -- 91
2019-11-30 02:00:00 11.9 3 Sudoeste 5 Sudoeste 0 -- -- 90
2019-11-30 01:00:00 11.3 4 Sudoeste 5 Sudoeste 0 -- -- 93
2019-11-30 00:00:00 9.9 3 Sur 5 Sur 0 -- -- 94
2019-11-29 23:00:00 9.7 3 Sur 6 Sur 0 -- -- 92
2019-11-29 22:00:00 10.6 6 Sur 8 Sur 0 -- -- 90
2019-11-29 21:00:00 11.4 4 Sudoeste 7 Sur 0 -- -- 88
2019-11-29 20:00:00 12.4 4 Sudoeste 7 Sur 0 -- -- 85
2019-11-29 19:00:00 14 3 Sur 5 Oeste 0 -- -- 79
2019-11-29 18:00:00 16.3 3 Sudoeste 9 Oeste 0 -- -- 69
2019-11-29 17:00:00 16.8 5 Oeste 21 Oeste 0 -- -- 67
2019-11-29 16:00:00 17.5 10 Oeste 23 Noroeste 0 -- -- 63
2019-11-29 15:00:00 16.9 12 Noroeste 18 Noroeste 0 -- -- 66
2019-11-29 14:00:00 17 10 Oeste 21 Oeste 0 -- -- 65
2019-11-29 13:00:00 16.7 13 Oeste 22 Oeste 0 -- -- 67
2019-11-29 12:00:00 16 11 Oeste 18 Sudoeste 0 -- -- 74
2019-11-29 11:00:00 14.7 8 Sudoeste 13 Sudoeste 0 -- -- 81
2019-11-29 10:00:00 13.3 6 Sur 10 Sudoeste 0 -- -- 88
2019-11-29 09:00:00 12.2 5 Sudoeste 11 Sudoeste 0 -- -- 92
2019-11-29 08:00:00 11.7 8 Sudoeste 13 Sur 0 -- -- 91
2019-11-29 07:00:00 11.7 10 Sur 15 Sur 0 -- -- 91
2019-11-29 06:00:00 11.9 8 Sudoeste 16 Sudoeste 0 -- -- 91
2019-11-29 05:00:00 12 9 Sudoeste 21 Sudoeste 0 -- -- 91
2019-11-29 04:00:00 11.8 12 Sudoeste 19 Sudoeste 0 -- -- 93
2019-11-29 03:00:00 10.7 7 Sudoeste 14 Sudoeste 0 -- -- 95
2019-11-29 02:00:00 10.7 10 Sudoeste 13 Sudoeste 0 -- -- 94
2019-11-29 01:00:00 10.5 7 Sudoeste 10 Sudoeste 0 -- -- 93
2019-11-29 00:00:00 10.7 8 Sudoeste 11 Sur 0 -- -- 92
2019-11-28 23:00:00 9.9 7 Sur 10 Sur 0 -- -- 92
2019-11-28 22:00:00 10.9 3 Oeste 11 Sudoeste 0 -- -- 85
2019-11-28 21:00:00 12.5 9 Sudoeste 15 Sudoeste 0 -- -- 81
2019-11-28 20:00:00 13.9 10 Sudoeste 14 Sudoeste 0 -- -- 76
2019-11-28 19:00:00 14.5 7 Sudoeste 10 Sudoeste 0 -- -- 76
2019-11-28 18:00:00 15.1 6 Sudoeste 18 Oeste 0 -- -- 73
2019-11-28 17:00:00 15.4 12 Sudoeste 20 Sudoeste 0 -- -- 73
2019-11-28 16:00:00 15.4 12 Sudoeste 23 Sudoeste 0 -- -- 73
2019-11-28 15:00:00 15.8 14 Sudoeste 27 Oeste 0 -- -- 70
2019-11-28 14:00:00 15.7 17 Oeste 27 Oeste 0 -- -- 70
2019-11-28 13:00:00 15.7 15 Sudoeste 24 Sudoeste 0 -- -- 71
2019-11-28 12:00:00 14.6 13 Sudoeste 23 Sudoeste 0 -- -- 79
2019-11-28 11:00:00 13.6 17 Sur 23 Sur 0 -- -- 84
2019-11-28 10:00:00 12.4 13 Sudoeste 19 Sudoeste 0 -- -- 90
2019-11-28 09:00:00 11.1 9 Sur 13 Sur 0 -- -- 95
2019-11-28 08:00:00 11 7 Sudoeste 13 Sudoeste 0 -- -- 92
2019-11-28 07:00:00 10.6 4 Sur 10 Sudoeste 0 -- -- 94
2019-11-28 06:00:00 10.5 3 Sudoeste 9 Sudoeste 0 -- -- 94
2019-11-28 05:00:00 9.9 5 Sur 11 Sudoeste 0 -- -- 95
2019-11-28 04:00:00 8.7 6 Sudoeste 10 Sudoeste 0 -- -- 97
2019-11-28 03:00:00 7.8 6 Sudoeste 9 Sudoeste 0 -- -- 94
2019-11-28 02:00:00 9.1 6 Sudoeste 10 Oeste 0 -- -- 91
2019-11-28 01:00:00 10.4 6 Oeste 12 Oeste 0 -- -- 89
2019-11-28 00:00:00 10.7 9 Sudoeste 12 Oeste 0 -- -- 88
2019-11-27 23:00:00 10.6 9 Sudoeste 14 Oeste 0 -- -- 87
2019-11-27 22:00:00 10.8 10 Sudoeste 14 Sudoeste 0 -- -- 86
2019-11-27 21:00:00 10.4 7 Sudoeste 10 Sudoeste 0 -- -- 88
2019-11-27 20:00:00 12.3 6 Oeste 15 Oeste 0 -- -- 81
2019-11-27 19:00:00 13 7 Oeste 12 Oeste 0 -- -- 76
2019-11-27 18:00:00 14.3 9 Oeste 19 Oeste 0 -- -- 70
2019-11-27 17:00:00 15 15 Oeste 23 Oeste 0 -- -- 64
2019-11-27 16:00:00 15 14 Oeste 29 Noroeste 0 -- -- 67
2019-11-27 15:00:00 16.1 18 Oeste 31 Sudoeste 0 -- -- 64
2019-11-27 14:00:00 15.3 20 Noroeste 31 Oeste 0 -- -- 73
2019-11-27 06:00:00 -- -- -- -- -- -- -- -- --
2019-11-27 05:00:00 11.4 9 Oeste 27 Noroeste 0 -- -- 93
2019-11-27 04:00:00 12.6 17 Oeste 25 Noroeste 0 -- -- 93
2019-11-27 03:00:00 12.8 8 Oeste 29 Oeste 0.4 -- -- 94
2019-11-27 02:00:00 13.2 16 Sudoeste 26 Sudoeste 0 -- -- 89
2019-11-27 01:00:00 12.4 11 Sudoeste 23 Sudoeste 0 -- -- 88
2019-11-27 00:00:00 12.9 17 Oeste 27 Sudoeste 0 -- -- 85
2019-11-26 23:00:00 13.6 12 Oeste 20 Sudoeste 0 -- -- 89
2019-11-26 22:00:00 14.2 8 Sudoeste 19 Sudoeste 0.2 -- -- 91
2019-11-26 21:00:00 14.1 16 Sudoeste 31 Sudoeste 0.4 -- -- 95
2019-11-26 20:00:00 14.6 17 Sudoeste 31 Sudoeste 0 -- -- 91
2019-11-26 19:00:00 15.5 17 Sudoeste 34 Sudoeste 0.2 -- -- 85
2019-11-26 18:00:00 16.9 16 Sudoeste 36 Oeste 0 -- -- 76
2019-11-26 17:00:00 17.8 14 Sudoeste 33 Sudoeste 0 -- -- 71
2019-11-26 16:00:00 17.6 24 Sudoeste 46 Sudoeste 0 -- -- 71
2019-11-26 15:00:00 17.4 35 Sudoeste 51 Sudoeste 0 -- -- 70
2019-11-26 14:00:00 17.5 19 Sudoeste 30 Sudoeste 0 -- -- 80
2019-11-26 13:00:00 15.9 21 Sudoeste 35 Sudoeste 0 -- -- 85
2019-11-26 12:00:00 15.6 19 Sudoeste 30 Sudoeste 0 -- -- 88
2019-11-26 11:00:00 14.5 13 Sudoeste 22 Sudoeste 0 -- -- 96
2019-11-26 10:00:00 13.8 15 Sur 21 Sur 0 -- -- 96
2019-11-26 09:00:00 13.3 14 Sur 23 Sur 0 -- -- 96
2019-11-26 08:00:00 13 14 Sur 22 Sur 0 -- -- 96
2019-11-26 07:00:00 13 15 Sur 25 Sudoeste 0 -- -- 94
2019-11-26 06:00:00 12.9 11 Sur 25 Sur 0 -- -- 93
2019-11-26 05:00:00 12.7 9 Sur 15 Sur 0 -- -- 92
2019-11-26 04:00:00 12.2 7 Sur 11 Sur 0 -- -- 95
2019-11-26 03:00:00 11.7 8 Sur 12 Sur 0 -- -- 97
2019-11-26 02:00:00 10.3 7 Sur 12 Sur 0 -- -- 97
2019-11-26 01:00:00 10.8 4 Sur 8 Sudoeste 0 -- -- 93
2019-11-26 00:00:00 11.8 4 Sudoeste 10 Sudoeste 0 -- -- 93
2019-11-25 23:00:00 13.1 6 Sudoeste 10 Oeste 0 -- -- 91
2019-11-25 22:00:00 13.7 8 Oeste 12 Oeste 0 -- -- 88
2019-11-25 21:00:00 13.1 4 Sudoeste 10 Oeste 0 -- -- 91
2019-11-25 20:00:00 12.9 5 Oeste 9 Oeste 0 -- -- 91
2019-11-25 19:00:00 13.8 4 Sudoeste 13 Oeste 0 -- -- 85
2019-11-25 18:00:00 15.9 10 Oeste 22 Oeste 0 -- -- 78
2019-11-25 17:00:00 17.1 16 Oeste 24 Oeste 0 -- -- 72
2019-11-25 16:00:00 17 15 Noroeste 29 Oeste 0 -- -- 73
2019-11-25 15:00:00 17.9 20 Oeste 31 Oeste 0 -- -- 70
2019-11-25 14:00:00 17.6 18 Oeste 36 Oeste 0 -- -- 75
2019-11-25 13:00:00 17.1 24 Oeste 34 Oeste 0 -- -- 76
2019-11-25 12:00:00 15.2 13 Oeste 22 Oeste 0.2 -- -- 95
2019-11-25 11:00:00 15.3 14 Oeste 24 Sudoeste 0 -- -- 92
2019-11-25 10:00:00 14.8 12 Sudoeste 24 Oeste 0 -- -- 94
2019-11-25 09:00:00 14.2 11 Sudoeste 28 Oeste 0 -- -- 94
2019-11-25 08:00:00 14 15 Sudoeste 28 Sudoeste 0 -- -- 93
2019-11-25 07:00:00 14.1 19 Sudoeste 39 Sudoeste 0 -- -- 92
2019-11-25 06:00:00 14 18 Sudoeste 35 Sudoeste 0 -- -- 90
2019-11-25 05:00:00 13.5 23 Oeste 37 Sudoeste 0 -- -- 92
2019-11-25 04:00:00 12.8 24 Sudoeste 36 Sudoeste 0 -- -- 93
2019-11-25 03:00:00 12.5 19 Sudoeste 31 Oeste 0 -- -- 94
2019-11-25 02:00:00 11.5 17 Sudoeste 27 Sudoeste 0.2 -- -- 94
2019-11-25 01:00:00 11.7 21 Sudoeste 30 Sudoeste 0 -- -- 89
2019-11-25 00:00:00 11.8 18 Sudoeste 29 Sudoeste 0 -- -- 86
2019-11-24 23:00:00 12 17 Sudoeste 26 Sudoeste 0 -- -- 85
2019-11-24 22:00:00 10.9 10 Sudoeste 14 Sudoeste 0 -- -- 89
2019-11-24 21:00:00 10.4 8 Sur 11 Sur 0 -- -- 89
2019-11-24 20:00:00 11.6 6 Sudoeste 12 Sudoeste 0 -- -- 82
2019-11-24 19:00:00 12.3 9 Sudoeste 13 Sudoeste 0 -- -- 78
2019-11-24 18:00:00 12.8 6 Oeste 18 Oeste 0 -- -- 75
2019-11-24 17:00:00 13.3 14 Oeste 27 Oeste 0 -- -- 69
2019-11-24 16:00:00 13.7 18 Oeste 27 Noroeste 0 -- -- 69
2019-11-24 15:00:00 13.8 17 Oeste 25 Oeste 0 -- -- 69
2019-11-24 14:00:00 13.3 14 Oeste 23 Oeste 0 -- -- 74
2019-11-24 13:00:00 12.2 14 Noroeste 20 Noroeste 0 -- -- 76
2019-11-24 12:00:00 11.6 11 Oeste 20 Oeste 0 -- -- 80
2019-11-24 11:00:00 10.2 9 Oeste 14 Oeste 0 -- -- 87
2019-11-24 10:00:00 9 8 Oeste 12 Oeste 0 -- -- 91
2019-11-24 09:00:00 7.7 7 Oeste 14 Oeste 0 -- -- 96
2019-11-24 08:00:00 6 8 Oeste 12 Oeste 0 -- -- 97
2019-11-24 07:00:00 6.2 9 Oeste 18 Oeste 0 -- -- 96
2019-11-24 06:00:00 6 10 Oeste 15 Oeste 0 -- -- 95
2019-11-24 05:00:00 5.9 8 Oeste 13 Oeste 0 -- -- 96
2019-11-24 04:00:00 6 8 Oeste 13 Oeste 0 -- -- 94
2019-11-24 03:00:00 6.5 9 Oeste 14 Oeste 0 -- -- 91
2019-11-24 02:00:00 6.9 9 Oeste 14 Oeste 0 -- -- 91
2019-11-24 01:00:00 7.5 8 Oeste 18 Oeste 0 -- -- 89
2019-11-24 00:00:00 7.4 9 Sudoeste 18 Oeste 0 -- -- 89
2019-11-23 23:00:00 8.4 12 Oeste 24 Noroeste 0 -- -- 83
2019-11-23 22:00:00 8.6 16 Oeste 25 Oeste 0 -- -- 83
2019-11-23 21:00:00 8.4 13 Oeste 19 Oeste 0 -- -- 88
2019-11-23 20:00:00 8.9 10 Oeste 21 Noroeste 0 -- -- 85
2019-11-23 19:00:00 9.9 14 Oeste 32 Oeste 0 -- -- 79
2019-11-23 18:00:00 11.2 20 Noroeste 39 Oeste 0 -- -- 71
2019-11-23 17:00:00 12.6 28 Noroeste 40 Noroeste 0 -- -- 66
2019-11-23 16:00:00 13 23 Noroeste 39 Oeste 0 -- -- 68
2019-11-23 15:00:00 12.6 24 Noroeste 39 Noroeste 0 -- -- 69
2019-11-23 14:00:00 12 25 Noroeste 45 Oeste 0 -- -- 72
2019-11-23 13:00:00 11.8 30 Noroeste 42 Noroeste 0 -- -- 73
2019-11-23 12:00:00 11.3 25 Noroeste 43 Oeste 0 -- -- 78
2019-11-23 11:00:00 10.3 29 Oeste 41 Noroeste 0 -- -- 82
2019-11-23 10:00:00 9.5 23 Oeste 36 Oeste 0 -- -- 86
2019-11-23 09:00:00 8.5 23 Oeste 33 Oeste 0 -- -- 88
2019-11-23 08:00:00 8.8 22 Oeste 37 Oeste 0 -- -- 87
2019-11-23 07:00:00 9 24 Oeste 35 Oeste 0 -- -- 88
2019-11-23 06:00:00 9.3 26 Oeste 41 Oeste 0 -- -- 88
2019-11-23 05:00:00 9.6 26 Oeste 45 Oeste 0 -- -- 89
2019-11-23 04:00:00 9.7 26 Oeste 46 Oeste 0 -- -- 86
2019-11-23 03:00:00 10.1 30 Oeste 57 Oeste 0 -- -- 84
2019-11-23 02:00:00 11.1 33 Oeste 52 Oeste 0 -- -- 81
2019-11-23 01:00:00 11.8 39 Oeste 60 Oeste 0 -- -- 78
2019-11-23 00:00:00 11.7 35 Oeste 58 Oeste 0 -- -- 79
2019-11-22 23:00:00 11.5 33 Oeste 54 Oeste 0 -- -- 80
2019-11-22 22:00:00 11.6 26 Oeste 49 Oeste 0 -- -- 80
2019-11-22 21:00:00 12.8 28 Oeste 51 Oeste 0 -- -- 80
2019-11-22 20:00:00 12.7 27 Oeste 50 Oeste 0 -- -- 80
2019-11-22 19:00:00 12.8 28 Oeste 48 Oeste 0 -- -- 76
2019-11-22 18:00:00 14.1 29 Oeste 51 Oeste 0 -- -- 78
2019-11-22 17:00:00 14.9 26 Oeste 54 Noroeste 0 -- -- 76
2019-11-22 16:00:00 15.2 26 Oeste 48 Oeste 3.8 -- -- 93
2019-11-22 15:00:00 15.4 28 Sudoeste 50 Sudoeste 1 -- -- 92
2019-11-22 14:00:00 15.2 28 Sudoeste 51 Sudoeste 0.6 -- -- 91
2019-11-22 13:00:00 13.8 31 Sudoeste 60 Sudoeste 0.4 -- -- 94
2019-11-22 12:00:00 14.4 46 Sudoeste 66 Sudoeste 0.2 -- -- 88
2019-11-22 11:00:00 13.4 32 Sudoeste 60 Sudoeste 0.6 -- -- 92
2019-11-22 10:00:00 13.1 28 Sudoeste 42 Sudoeste 0 -- -- 91
2019-11-22 09:00:00 12.3 23 Sudoeste 37 Sudoeste 0 -- -- 91
2019-11-22 08:00:00 11.5 17 Sur 28 Sur 0.2 -- -- 91
2019-11-22 07:00:00 11 18 Sur 33 Sudoeste 0 -- -- 91
2019-11-22 06:00:00 10.6 11 Sudoeste 19 Sur 0 -- -- 91
2019-11-22 05:00:00 10 12 Sur 18 Sur 0.2 -- -- 96
2019-11-22 04:00:00 10.4 8 Sur 14 Sudoeste 0 -- -- 95
2019-11-22 03:00:00 10.2 9 Sudoeste 13 Sudoeste 0 -- -- 96
2019-11-22 02:00:00 9.5 8 Sur 13 Sur 0 -- -- 98
2019-11-22 01:00:00 9.4 7 Sudeste 13 Sur 0 -- -- 96
2019-11-22 00:00:00 9.4 12 Sur 15 Sur 0 -- -- 97
2019-11-21 23:00:00 9.2 7 Sur 10 Sur 0 -- -- 96
2019-11-21 22:00:00 10 6 Sur 13 Sudoeste 0 -- -- 94
2019-11-21 21:00:00 9.5 5 Sudoeste 9 Sudoeste 0 -- -- 96
2019-11-21 20:00:00 9.9 5 Sur 7 Sudoeste 0 -- -- 93
2019-11-21 19:00:00 11.6 3 Sur 4 Sur 0 -- -- 93
2019-11-21 18:00:00 12.8 2 Oeste 18 Sudoeste 0 -- -- 88
2019-11-21 17:00:00 13.4 9 Oeste 15 Oeste 0.2 -- -- 83
2019-11-21 16:00:00 12.9 10 Oeste 19 Sudoeste 0 -- -- 87
2019-11-21 15:00:00 13 12 Sudoeste 19 Sudoeste 0 -- -- 87
2019-11-21 14:00:00 12.1 3 Sudoeste 12 Sur 0.2 -- -- 89
2019-11-21 13:00:00 11.8 5 Sur 13 Sudoeste 0.4 -- -- 93
2019-11-21 12:00:00 11.5 7 Sudoeste 13 Sur 0 -- -- 94
2019-11-21 11:00:00 10 4 Sur 11 Oeste 0.8 -- -- 96
2019-11-21 10:00:00 9.7 8 Oeste 18 Noroeste 2.6 -- -- 95
2019-11-21 09:00:00 10.1 6 Sudoeste 21 Sudoeste 0.6 -- -- 95
2019-11-21 08:00:00 10 13 Sudoeste 22 Sudoeste 0 -- -- 94
2019-11-21 07:00:00 9.6 8 Sur 13 Sur 0 -- -- 95
2019-11-21 06:00:00 9.4 6 Sur 16 Sudoeste 0 -- -- 95
2019-11-21 05:00:00 9.3 12 Sur 15 Sur 0 -- -- 96
2019-11-21 04:00:00 9 10 Sur 13 Sudoeste 0 -- -- 97
2019-11-21 03:00:00 8.5 8 Sur 10 Sur 0 -- -- 97
2019-11-21 02:00:00 8.6 7 Sur 14 Sudoeste 0 -- -- 96
2019-11-21 01:00:00 8.8 6 Sudoeste 19 Sudoeste 0 -- -- 95
2019-11-21 00:00:00 9.1 8 Sudoeste 14 Sudoeste 0 -- -- 95
2019-11-20 23:00:00 8.5 6 Sur 15 Sur 0 -- -- 96
2019-11-20 22:00:00 8.7 10 Sur 15 Sur 3.4 -- -- 96
2019-11-20 21:00:00 9.1 3 Norte 28 Noroeste 1.2 -- -- 95
2019-11-20 20:00:00 10.2 12 Sur 16 Sur 0 -- -- 89
2019-11-20 19:00:00 10.6 5 Sur 9 Sudoeste 0 -- -- 87
2019-11-20 18:00:00 11.7 3 Sudoeste 12 Oeste 0 -- -- 82
2019-11-20 17:00:00 12.1 12 Sudoeste 26 Sudoeste 0 -- -- 79
2019-11-20 16:00:00 12.1 12 Sudoeste 20 Sudoeste 0 -- -- 83
2019-11-20 15:00:00 9.9 7 Sur 20 Sudeste 0 -- -- 92
2019-11-20 14:00:00 9.2 12 Sur 25 Sudeste 0 -- -- 90
2019-11-20 13:00:00 9.2 18 Sur 29 Sur 0.6 -- -- 88
2019-11-20 12:00:00 7.6 13 Sudeste 29 Sur 1.2 -- -- 93
2019-11-20 11:00:00 7 22 Sur 33 Sudeste 0.6 -- -- 92
2019-11-20 10:00:00 6.6 18 Sudeste 25 Sudeste 3 -- -- 95
2019-11-20 09:00:00 6.8 11 Oeste 17 Oeste 3.6 -- -- 95
2019-11-20 08:00:00 6.7 10 Sudeste 19 Sudeste 3.2 -- -- 95
2019-11-20 07:00:00 6.5 2 Sudeste 8 Sudeste 1 -- -- 93
2019-11-20 06:00:00 6.5 4 Sudeste 14 Sudeste 0 -- -- 89
2019-11-20 05:00:00 6.9 4 Sudeste 22 Sur 0 -- -- 87
2019-11-20 04:00:00 6.9 13 Sur 20 Sur 0 -- -- 85
2019-11-20 03:00:00 5.5 8 Sur 14 Sur 0 -- -- 90
2019-11-20 02:00:00 5.4 8 Sur 14 Sur 0 -- -- 89
2019-11-20 01:00:00 5.2 6 Sur 10 Sur 0 -- -- 93
2019-11-20 00:00:00 5.1 8 Sur 12 Sudeste 0 -- -- 93
2019-11-19 23:00:00 4.6 4 Sur 9 Sudeste 0 -- -- 94
2019-11-19 22:00:00 4.5 5 Sudeste 8 Sudeste 0 -- -- 96
2019-11-19 21:00:00 5.1 4 Sur 5 Sudoeste 0 -- -- 92
2019-11-19 20:00:00 6.6 0 Calma 3 Sudoeste 0 -- -- 89
2019-11-19 19:00:00 9.3 3 Nordeste 10 Noroeste 0 -- -- 82
2019-11-19 18:00:00 11 8 Norte 14 Sudoeste 0 -- -- 74
2019-11-19 17:00:00 12.6 8 Sudoeste 15 Sudoeste 0 -- -- 52
2019-11-19 16:00:00 13.2 9 Sudoeste 12 Sudoeste 0 -- -- 55
2019-11-19 15:00:00 13.3 4 Sur 12 Sudoeste 0 -- -- 58
2019-11-19 14:00:00 12.9 4 Oeste 13 Oeste 0 -- -- 60
2019-11-19 13:00:00 12.2 5 Oeste 12 Sudoeste 0 -- -- 68
2019-11-19 12:00:00 10.4 4 Sudoeste 7 Oeste 0 -- -- 76
2019-11-19 11:00:00 9 5 Sur 9 Sudoeste 0 -- -- 85
2019-11-19 10:00:00 6.1 4 Sur 6 Sur 0 -- -- 96
2019-11-19 09:00:00 3.6 3 Sur 8 Sur 0 -- -- 99
2019-11-19 08:00:00 1.8 5 Sudeste 9 Sur 0 -- -- 98
2019-11-19 07:00:00 1.4 5 Sudeste 7 Sudeste 0 -- -- 97
2019-11-19 06:00:00 2.3 3 Sur 8 Sur 0 -- -- 97
2019-11-19 05:00:00 2.6 3 Sur 8 Sur 0 -- -- 96
2019-11-19 04:00:00 3.2 0 Calma 8 Sur 0 -- -- 94
2019-11-19 03:00:00 2.3 4 Sur 5 Sur 0 -- -- 94
2019-11-19 02:00:00 2.9 4 Sur 5 Sur 0 -- -- 93
2019-11-19 01:00:00 4.3 2 Sur 6 Sur 0 -- -- 90
2019-11-19 00:00:00 4.7 3 Sur 8 Sudoeste 0 -- -- 90
2019-11-18 23:00:00 4.4 3 Sur 6 Sur 0 -- -- 90
2019-11-18 22:00:00 5.3 3 Sur 9 Sudoeste 0 -- -- 88
2019-11-18 21:00:00 5.6 3 Sur 6 Sur 0 -- -- 88
2019-11-18 20:00:00 7.2 4 Sur 6 Sur 0 -- -- 82
2019-11-18 19:00:00 8.5 3 Noroeste 5 Oeste 0 -- -- 79
2019-11-18 18:00:00 11.8 4 Oeste 17 Norte 0 -- -- 66
2019-11-18 17:00:00 12.5 10 Norte 18 Noroeste 0 -- -- 61
2019-11-18 16:00:00 12.3 10 Noroeste 21 Noroeste 0 -- -- 67
2019-11-18 15:00:00 11.8 9 Noroeste 17 Noroeste 0 -- -- 69
2019-11-18 14:00:00 10.9 12 Noroeste 20 Noroeste 0 -- -- 72
2019-11-18 13:00:00 10 12 Noroeste 20 Noroeste 0 -- -- 77
2019-11-18 12:00:00 8.9 11 Noroeste 18 Noroeste 0 -- -- 82
2019-11-18 11:00:00 8.1 11 Noroeste 19 Noroeste 0 -- -- 85
2019-11-18 10:00:00 6.6 12 Oeste 20 Noroeste 0 -- -- 89
2019-11-18 09:00:00 5.3 14 Noroeste 23 Noroeste 0 -- -- 92
2019-11-18 08:00:00 4.7 12 Noroeste 22 Noroeste 0 -- -- 94
2019-11-18 07:00:00 4.9 12 Noroeste 26 Oeste 0 -- -- 91
2019-11-18 06:00:00 5.3 17 Noroeste 28 Noroeste 0 -- -- 91
2019-11-18 05:00:00 5.7 17 Noroeste 26 Noroeste 0 -- -- 90
2019-11-18 04:00:00 6.2 12 Noroeste 27 Oeste 0 -- -- 92
2019-11-18 03:00:00 7.3 16 Noroeste 30 Oeste 0 -- -- 93
2019-11-18 02:00:00 8.7 14 Noroeste 36 Noroeste 0 -- -- 91
2019-11-18 01:00:00 10.4 22 Noroeste 35 Noroeste 0.2 -- -- 88
2019-11-18 00:00:00 11.4 23 Noroeste 40 Noroeste 0 -- -- 96
2019-11-17 23:00:00 11.6 22 Noroeste 43 Noroeste 0.6 -- -- 96
2019-11-17 22:00:00 11.9 13 Oeste 37 Oeste 1.4 -- -- 96
2019-11-17 21:00:00 12.2 16 Oeste 31 Oeste 0 -- -- 91
2019-11-17 20:00:00 12.4 18 Oeste 31 Oeste 0 -- -- 90
2019-11-17 19:00:00 12.5 18 Oeste 32 Oeste 3.6 -- -- 95
2019-11-17 18:00:00 13 18 Oeste 33 Oeste 0.4 -- -- 92
2019-11-17 17:00:00 14 13 Oeste 32 Oeste 0 -- -- 86
2019-11-17 16:00:00 14.4 19 Oeste 33 Oeste 0 -- -- 86
2019-11-17 15:00:00 13.4 22 Oeste 36 Oeste 0 -- -- 89
2019-11-17 14:00:00 12.5 18 Oeste 27 Oeste 0 -- -- 92
2019-11-17 13:00:00 11.5 18 Sudoeste 30 Sudoeste 1.2 -- -- 94
2019-11-17 12:00:00 11 17 Sudoeste 33 Sudoeste 0.2 -- -- 94
2019-11-17 11:00:00 10.2 18 Sudoeste 29 Sudoeste 0 -- -- 94
2019-11-17 10:00:00 9.5 17 Sudoeste 26 Sudoeste 0 -- -- 95
2019-11-17 09:00:00 8.2 18 Sudoeste 26 Sudoeste 0 -- -- 94
2019-11-17 08:00:00 7.1 12 Sudoeste 20 Sudoeste 0 -- -- 94
2019-11-17 07:00:00 6.3 7 Sur 11 Sudeste 0.6 -- -- 95
2019-11-17 06:00:00 6.2 4 Sudoeste 9 Sudoeste 0.2 -- -- 90
2019-11-17 05:00:00 6.7 7 Oeste 13 Sudoeste 0 -- -- 77
2019-11-17 04:00:00 6.2 6 Sudoeste 12 Oeste 0 -- -- 79
2019-11-17 03:00:00 6.3 9 Sudoeste 17 Sudoeste 0 -- -- 76
2019-11-17 02:00:00 6.1 7 Oeste 14 Oeste 0 -- -- 77
2019-11-17 01:00:00 5.4 9 Oeste 15 Oeste 0 -- -- 80
2019-11-17 00:00:00 5.2 9 Oeste 13 Oeste 0 -- -- 79
2019-11-16 23:00:00 4.8 8 Oeste 12 Oeste 0 -- -- 79
2019-11-16 22:00:00 6.5 9 Oeste 16 Oeste 0 -- -- 71
2019-11-16 21:00:00 6.7 10 Oeste 17 Sudoeste 0 -- -- 66
2019-11-16 20:00:00 8 10 Oeste 16 Oeste 0 -- -- 61
2019-11-16 19:00:00 9 11 Oeste 27 Noroeste 0 -- -- 56
2019-11-16 18:00:00 11.3 15 Noroeste 24 Oeste 0 -- -- 48
2019-11-16 17:00:00 12 18 Noroeste 24 Noroeste 0 -- -- 47
2019-11-16 16:00:00 11.7 12 Noroeste 27 Oeste 0 -- -- 48
2019-11-16 15:00:00 11.3 11 Noroeste 23 Noroeste 0 -- -- 50
2019-11-16 14:00:00 10.2 11 Noroeste 23 Noroeste 0 -- -- 55
2019-11-16 13:00:00 9.2 8 Norte 18 Noroeste 0 -- -- 61
2019-11-16 12:00:00 7.7 6 Norte 18 Noroeste 0 -- -- 66
2019-11-16 11:00:00 6.4 10 Norte 17 Noroeste 0 -- -- 73
2019-11-16 10:00:00 4.7 10 Noroeste 20 Noroeste 0 -- -- 79
2019-11-16 09:00:00 2.4 9 Oeste 15 Oeste 0 -- -- 86
2019-11-16 08:00:00 1.7 4 Oeste 21 Oeste 0 -- -- 86
2019-11-16 07:00:00 1.5 9 Oeste 17 Oeste 0 -- -- 89
2019-11-16 06:00:00 1.3 10 Oeste 16 Oeste 0 -- -- 91
2019-11-16 05:00:00 1.3 3 Oeste 12 Oeste 0 -- -- 89
2019-11-16 04:00:00 2.3 9 Oeste 23 Noroeste 0 -- -- 86
2019-11-16 03:00:00 2.4 9 Oeste 21 Noroeste 0 -- -- 85
2019-11-16 02:00:00 2.3 6 Oeste 14 Oeste 0 -- -- 84
2019-11-16 01:00:00 3 6 Oeste 19 Noroeste 0 -- -- 82
2019-11-16 00:00:00 4.1 12 Oeste 19 Noroeste 0 -- -- 76
2019-11-15 23:00:00 5.1 11 Noroeste 21 Noroeste 0 -- -- 70
2019-11-15 22:00:00 6 14 Oeste 24 Noroeste 0 -- -- 68
2019-11-15 21:00:00 7.1 18 Noroeste 28 Noroeste 0 -- -- 64
2019-11-15 20:00:00 7.9 18 Oeste 28 Oeste 0 -- -- 59
2019-11-15 19:00:00 9.1 13 Noroeste 23 Oeste 0 -- -- 54
2019-11-15 18:00:00 9.5 13 Noroeste 28 Noroeste 0 -- -- 50
2019-11-15 17:00:00 10.7 18 Noroeste 33 Noroeste 0 -- -- 49
2019-11-15 16:00:00 10.6 22 Noroeste 37 Noroeste 0 -- -- 51
2019-11-15 15:00:00 10.4 22 Noroeste 37 Noroeste 0 -- -- 53
2019-11-15 14:00:00 9.6 23 Noroeste 36 Noroeste 0 -- -- 57
2019-11-15 13:00:00 8.2 20 Noroeste 37 Noroeste 0 -- -- 65
2019-11-15 12:00:00 8.3 23 Noroeste 40 Oeste 0 -- -- 64
2019-11-15 11:00:00 7.3 24 Noroeste 37 Noroeste 0 -- -- 72
2019-11-15 10:00:00 6.2 21 Noroeste 37 Oeste 0 -- -- 80
2019-11-15 09:00:00 5.1 19 Oeste 32 Noroeste 0 -- -- 85
2019-11-15 08:00:00 4.8 19 Oeste 32 Oeste 0 -- -- 83
2019-11-15 07:00:00 5 23 Oeste 34 Oeste 0 -- -- 81
2019-11-15 06:00:00 5.2 20 Noroeste 33 Oeste 0 -- -- 84
2019-11-15 05:00:00 5.1 20 Noroeste 33 Noroeste 0 -- -- 85
2019-11-15 04:00:00 5.3 19 Oeste 31 Oeste 0 -- -- 84
2019-11-15 03:00:00 5.6 20 Oeste 33 Oeste 0 -- -- 81
2019-11-15 02:00:00 5.8 19 Oeste 35 Oeste 0 -- -- 80
2019-11-15 01:00:00 6.2 22 Oeste 38 Noroeste 0 -- -- 78
2019-11-15 00:00:00 6.8 26 Oeste 41 Oeste 0 -- -- 76
2019-11-14 23:00:00 7.6 26 Noroeste 40 Oeste 0 -- -- 73
2019-11-14 22:00:00 8.4 25 Oeste 45 Oeste 0 -- -- 74
2019-11-14 21:00:00 8.8 21 Oeste 39 Oeste 0 -- -- 78
2019-11-14 20:00:00 8.9 26 Oeste 39 Noroeste 0 -- -- 78
2019-11-14 19:00:00 8.6 24 Oeste 49 Oeste 0 -- -- 77
2019-11-14 18:00:00 10 32 Noroeste 51 Noroeste 0 -- -- 68
2019-11-14 17:00:00 10.8 26 Noroeste 49 Oeste 0 -- -- 70
2019-11-14 16:00:00 10.9 29 Noroeste 53 Oeste 0 -- -- 67
2019-11-14 15:00:00 11 34 Noroeste 52 Noroeste 0 -- -- 62
2019-11-14 14:00:00 10.5 30 Noroeste 50 Noroeste 0 -- -- 70
2019-11-14 13:00:00 9.5 30 Noroeste 46 Noroeste 0 -- -- 79
2019-11-14 12:00:00 9.4 25 Noroeste 44 Noroeste 0.2 -- -- 83
2019-11-14 11:00:00 8.1 24 Noroeste 45 Noroeste 1.4 -- -- 96
2019-11-14 10:00:00 9.7 26 Oeste 52 Noroeste 2 -- -- 92
2019-11-14 09:00:00 10.6 31 Oeste 53 Oeste 0.4 -- -- 87
2019-11-14 08:00:00 10.9 26 Oeste 53 Oeste 0 -- -- 86
2019-11-14 07:00:00 10.8 28 Oeste 42 Sudoeste 0 -- -- 84
2019-11-14 06:00:00 10.1 19 Oeste 35 Oeste 0 -- -- 87
2019-11-14 05:00:00 10.3 20 Oeste 31 Oeste 0 -- -- 86
2019-11-14 04:00:00 9.7 13 Oeste 23 Oeste 0 -- -- 81
2019-11-14 03:00:00 9.4 15 Oeste 30 Oeste 0 -- -- 84
2019-11-14 02:00:00 9.3 18 Oeste 27 Oeste 0 -- -- 84
2019-11-14 01:00:00 9.1 15 Oeste 26 Oeste 0 -- -- 83
2019-11-14 00:00:00 9.8 18 Oeste 40 Oeste 0 -- -- 84
2019-11-13 23:00:00 11.1 27 Oeste 37 Oeste 0 -- -- 81
2019-11-13 22:00:00 11.5 15 Oeste 31 Noroeste 0 -- -- 86
2019-11-13 21:00:00 12.9 23 Noroeste 35 Oeste 0 -- -- 83
2019-11-13 20:00:00 13 13 Oeste 27 Noroeste 0 -- -- 80
2019-11-13 19:00:00 14.6 15 Oeste 32 Oeste 0 -- -- 72
2019-11-13 18:00:00 16.6 24 Oeste 36 Oeste 0 -- -- 66
2019-11-13 17:00:00 17.7 22 Oeste 41 Noroeste 0 -- -- 62
2019-11-13 16:00:00 17.7 27 Noroeste 39 Oeste 0 -- -- 63
2019-11-13 15:00:00 18.4 23 Oeste 35 Oeste 0 -- -- 62
2019-11-13 14:00:00 17.4 23 Oeste 41 Noroeste 0 -- -- 68
2019-11-13 13:00:00 17.1 25 Oeste 38 Oeste 0 -- -- 70
2019-11-13 12:00:00 15.7 26 Noroeste 40 Oeste 0 -- -- 75
2019-11-13 11:00:00 14.7 19 Oeste 41 Oeste 0 -- -- 81
2019-11-13 10:00:00 13.7 18 Oeste 33 Oeste 0 -- -- 93
2019-11-13 09:00:00 13.2 22 Oeste 35 Oeste 0 -- -- 93
2019-11-13 08:00:00 13.4 22 Oeste 39 Oeste 0 -- -- 87
2019-11-13 07:00:00 13.5 25 Oeste 39 Oeste 0 -- -- 86
2019-11-13 06:00:00 13.2 23 Oeste 37 Oeste 0 -- -- 86
2019-11-13 05:00:00 13.2 24 Oeste 38 Oeste 0 -- -- 84
2019-11-13 04:00:00 13 20 Oeste 39 Oeste 0 -- -- 83
2019-11-13 03:00:00 12.5 21 Oeste 32 Oeste 0 -- -- 85
2019-11-13 02:00:00 11.9 20 Oeste 33 Oeste 0 -- -- 91
2019-11-13 01:00:00 12.7 18 Oeste 32 Oeste 0 -- -- 83
2019-11-13 00:00:00 12.4 18 Oeste 28 Oeste 0 -- -- 83
2019-11-12 23:00:00 12 18 Oeste 29 Oeste 0 -- -- 84
2019-11-12 22:00:00 12.3 18 Oeste 27 Oeste 0 -- -- 80
2019-11-12 21:00:00 11.6 9 Oeste 32 Oeste 0 -- -- 81
2019-11-12 20:00:00 12.7 23 Oeste 34 Oeste 0 -- -- 74
2019-11-12 19:00:00 12.9 13 Oeste 27 Noroeste 0 -- -- 67
2019-11-12 18:00:00 14.1 15 Noroeste 32 Oeste 0 -- -- 57
2019-11-12 17:00:00 15.4 16 Noroeste 32 Noroeste 0 -- -- 52
2019-11-12 16:00:00 15.4 21 Noroeste 35 Noroeste 0 -- -- 49
2019-11-12 15:00:00 15.3 21 Noroeste 39 Noroeste 0 -- -- 48
2019-11-12 14:00:00 14.5 22 Noroeste 36 Noroeste 0 -- -- 50
2019-11-12 13:00:00 12.7 24 Noroeste 39 Noroeste 0 -- -- 60
2019-11-12 12:00:00 11.6 17 Noroeste 27 Noroeste 0 -- -- 65
2019-11-12 11:00:00 10.4 16 Noroeste 27 Noroeste 0 -- -- 72
2019-11-12 10:00:00 9 15 Noroeste 24 Oeste 0 -- -- 81
2019-11-12 09:00:00 7.6 11 Noroeste 20 Noroeste 0 -- -- 90
2019-11-12 08:00:00 6.7 10 Oeste 19 Oeste 0 -- -- 94
2019-11-12 07:00:00 7 11 Oeste 16 Oeste 0 -- -- 94
2019-11-12 06:00:00 7.2 6 Oeste 20 Noroeste 0 -- -- 93
2019-11-12 05:00:00 8.4 12 Noroeste 20 Noroeste 0 -- -- 92
2019-11-12 04:00:00 8.1 9 Oeste 16 Noroeste 0 -- -- 95
2019-11-12 03:00:00 8.4 13 Oeste 24 Oeste 0 -- -- 94
2019-11-12 02:00:00 8.7 9 Oeste 22 Noroeste 0 -- -- 93
2019-11-12 01:00:00 9.4 12 Noroeste 23 Oeste 0 -- -- 91
2019-11-12 00:00:00 9.4 13 Oeste 21 Oeste 0 -- -- 90
2019-11-11 23:00:00 10.4 11 Oeste 26 Noroeste 0 -- -- 87
2019-11-11 22:00:00 11.1 18 Oeste 33 Noroeste 0 -- -- 86
2019-11-11 21:00:00 12.2 21 Noroeste 30 Oeste 0 -- -- 84
2019-11-11 20:00:00 14 19 Noroeste 33 Noroeste 0 -- -- 80
2019-11-11 19:00:00 15.1 15 Oeste 27 Noroeste 0 -- -- 80
2019-11-11 18:00:00 15.9 17 Noroeste 27 Noroeste 0 -- -- 82
2019-11-11 17:00:00 15.9 18 Noroeste 28 Noroeste 0 -- -- 86
2019-11-11 16:00:00 16.1 19 Oeste 30 Noroeste 0 -- -- 85
2019-11-11 15:00:00 15.5 20 Noroeste 31 Noroeste 0 -- -- 89
2019-11-11 14:00:00 14.5 19 Noroeste 32 Noroeste 0 -- -- 92
2019-11-11 13:00:00 13.8 16 Noroeste 27 Oeste 0 -- -- 94
2019-11-11 12:00:00 12.9 17 Noroeste 27 Noroeste 0 -- -- 99
2019-11-11 11:00:00 12.1 13 Noroeste 20 Noroeste 0 -- -- 99
2019-11-11 10:00:00 10.9 8 Oeste 13 Oeste 0 -- -- 98
2019-11-11 09:00:00 10 5 Sudoeste 8 Sudoeste 0 -- -- 98
2019-11-11 08:00:00 9.7 4 Sudoeste 10 Oeste 0 -- -- 98
2019-11-11 07:00:00 9.5 6 Oeste 9 Oeste 0 -- -- 98
2019-11-11 06:00:00 9.4 3 Oeste 6 Oeste 0 -- -- 98
2019-11-11 05:00:00 9.2 0 Calma 17 Oeste 0.2 -- -- 98
2019-11-11 04:00:00 9.1 9 Oeste 17 Oeste 0 -- -- 98
2019-11-11 03:00:00 9.1 9 Oeste 14 Noroeste 0.4 -- -- 97
2019-11-11 02:00:00 9 9 Noroeste 21 Noroeste 0 -- -- 96
2019-11-11 01:00:00 9 13 Noroeste 26 Noroeste 0 -- -- 95
2019-11-11 00:00:00 9.3 18 Noroeste 27 Noroeste 0 -- -- 91
2019-11-10 23:00:00 9.9 15 Noroeste 30 Noroeste 0 -- -- 86
2019-11-10 22:00:00 10.1 20 Oeste 34 Oeste 0 -- -- 85
2019-11-10 21:00:00 10.3 23 Noroeste 37 Noroeste 0 -- -- 84
2019-11-10 20:00:00 10.7 25 Noroeste 41 Noroeste 0 -- -- 78
2019-11-10 19:00:00 10.9 21 Noroeste 33 Noroeste 0 -- -- 75
2019-11-10 18:00:00 11 21 Noroeste 39 Noroeste 0 -- -- 75
2019-11-10 17:00:00 11.2 18 Noroeste 29 Noroeste 0 -- -- 76
2019-11-10 16:00:00 11.1 14 Norte 36 Norte 0 -- -- 70
2019-11-10 15:00:00 12.2 22 Noroeste 40 Noroeste 0 -- -- 58
2019-11-10 14:00:00 13.1 21 Noroeste 42 Noroeste 0 -- -- 52
2019-11-10 13:00:00 13.2 27 Noroeste 43 Noroeste 0 -- -- 52
2019-11-10 12:00:00 12.5 29 Noroeste 49 Noroeste 0 -- -- 55
2019-11-10 11:00:00 11.2 19 Noroeste 33 Noroeste 0 -- -- 70
2019-11-10 10:00:00 9.7 22 Noroeste 31 Noroeste 0 -- -- 83
2019-11-10 09:00:00 7.6 17 Noroeste 30 Noroeste 0 -- -- 93
2019-11-10 08:00:00 7.6 17 Noroeste 28 Noroeste 0 -- -- 92
2019-11-10 07:00:00 7.9 18 Noroeste 31 Oeste 0 -- -- 94
2019-11-10 06:00:00 8.3 21 Noroeste 32 Noroeste 0 -- -- 94
2019-11-10 05:00:00 8.3 19 Noroeste 32 Noroeste 0 -- -- 92
2019-11-10 04:00:00 8.3 17 Noroeste 32 Noroeste 0 -- -- 90
2019-11-10 03:00:00 8.5 19 Oeste 33 Noroeste 0 -- -- 88
2019-11-10 02:00:00 8.8 22 Oeste 33 Oeste 0 -- -- 89
2019-11-10 01:00:00 9.5 19 Noroeste 33 Noroeste 0 -- -- 89
2019-11-10 00:00:00 11 22 Noroeste 39 Noroeste 0 -- -- 88
2019-11-09 23:00:00 12.2 24 Oeste 37 Oeste 0 -- -- 89
2019-11-09 22:00:00 13.1 24 Oeste 36 Oeste 0 -- -- 86
2019-11-09 21:00:00 12.8 17 Oeste 30 Oeste 0 -- -- 86
2019-11-09 20:00:00 12.9 19 Oeste 32 Sudoeste 0 -- -- 81
2019-11-09 19:00:00 13.3 21 Oeste 30 Oeste 0 -- -- 76
2019-11-09 18:00:00 13.9 15 Oeste 28 Sudoeste 0 -- -- 69
2019-11-09 17:00:00 14.7 17 Oeste 28 Oeste 0 -- -- 66
2019-11-09 16:00:00 14.9 18 Oeste 36 Oeste 0 -- -- 64
2019-11-09 15:00:00 14.9 19 Oeste 37 Oeste 0 -- -- 62
2019-11-09 14:00:00 14.4 20 Noroeste 35 Oeste 0 -- -- 61
2019-11-09 13:00:00 13.7 18 Noroeste 27 Noroeste 0 -- -- 60
2019-11-09 12:00:00 11.7 13 Oeste 22 Noroeste 0 -- -- 62
2019-11-09 11:00:00 9.9 12 Noroeste 20 Oeste 0 -- -- 71
2019-11-09 10:00:00 8.6 13 Oeste 21 Oeste 0 -- -- 74
2019-11-09 09:00:00 5.8 8 Oeste 14 Oeste 0 -- -- 86
2019-11-09 08:00:00 3.8 6 Oeste 13 Noroeste 0 -- -- 90
2019-11-09 07:00:00 4.3 9 Noroeste 14 Noroeste 0 -- -- 89
2019-11-09 06:00:00 4 0 Calma 10 Oeste 0 -- -- 88
2019-11-09 05:00:00 5.3 8 Oeste 17 Oeste 0 -- -- 85
2019-11-09 04:00:00 5 12 Oeste 17 Oeste 0 -- -- 88
2019-11-09 03:00:00 5.4 10 Oeste 17 Oeste 0 -- -- 85
2019-11-09 02:00:00 5.7 8 Oeste 15 Oeste 0 -- -- 83
2019-11-09 01:00:00 6.2 10 Oeste 14 Oeste 0 -- -- 80
2019-11-09 00:00:00 6.9 7 Oeste 21 Oeste 0 -- -- 75
2019-11-08 23:00:00 8.1 13 Oeste 20 Noroeste 0 -- -- 70
2019-11-08 22:00:00 8.9 12 Noroeste 21 Noroeste 0 -- -- 66
2019-11-08 21:00:00 9.6 14 Noroeste 24 Noroeste 0 -- -- 62
2019-11-08 20:00:00 10.7 14 Oeste 23 Noroeste 0 -- -- 56
2019-11-08 19:00:00 11.3 8 Noroeste 23 Noroeste 0 -- -- 52
2019-11-08 18:00:00 12.9 14 Noroeste 33 Noroeste 0 -- -- 44
2019-11-08 17:00:00 13.9 19 Noroeste 31 Noroeste 0 -- -- 43
2019-11-08 16:00:00 14.1 21 Noroeste 36 Noroeste 0 -- -- 43
2019-11-08 15:00:00 13.6 17 Noroeste 35 Noroeste 0 -- -- 48
2019-11-08 14:00:00 12.8 21 Noroeste 32 Noroeste 0 -- -- 51
2019-11-08 13:00:00 12.1 19 Noroeste 33 Noroeste 0 -- -- 53
2019-11-08 12:00:00 10.9 19 Noroeste 33 Noroeste 0 -- -- 58
2019-11-08 11:00:00 9.6 18 Noroeste 29 Noroeste 0 -- -- 69
2019-11-08 10:00:00 8.5 18 Noroeste 28 Noroeste 0 -- -- 80
2019-11-08 09:00:00 7.4 16 Noroeste 30 Oeste 0 -- -- 88
2019-11-08 08:00:00 6.9 15 Oeste 26 Oeste 0 -- -- 89
2019-11-08 07:00:00 7.1 16 Oeste 28 Noroeste 0 -- -- 88
2019-11-08 06:00:00 7.6 17 Oeste 27 Oeste 0 -- -- 85
2019-11-08 05:00:00 8.2 17 Oeste 29 Oeste 0 -- -- 86
2019-11-08 04:00:00 8.7 20 Oeste 33 Oeste 0 -- -- 83
2019-11-08 03:00:00 8.7 20 Oeste 32 Oeste 0 -- -- 83
2019-11-08 02:00:00 9.2 20 Oeste 36 Oeste 0 -- -- 81
2019-11-08 01:00:00 9.3 18 Oeste 31 Oeste 0 -- -- 81
2019-11-08 00:00:00 9.1 18 Oeste 28 Oeste 0 -- -- 81
2019-11-07 23:00:00 9.7 16 Oeste 28 Noroeste 0 -- -- 77
2019-11-07 22:00:00 9.9 16 Oeste 30 Noroeste 0 -- -- 73
2019-11-07 21:00:00 10.4 19 Noroeste 32 Noroeste 0 -- -- 67
2019-11-07 20:00:00 11.1 21 Noroeste 39 Noroeste 0 -- -- 62
2019-11-07 19:00:00 12.1 24 Noroeste 39 Oeste 0 -- -- 59
2019-11-07 18:00:00 13.3 21 Noroeste 44 Noroeste 0 -- -- 54
2019-11-07 17:00:00 14.3 29 Noroeste 49 Noroeste 0 -- -- 49
2019-11-07 16:00:00 15.4 22 Noroeste 41 Noroeste 0 -- -- 52
2019-11-07 15:00:00 15.3 23 Noroeste 38 Noroeste 0 -- -- 50
2019-11-07 14:00:00 14.6 23 Noroeste 36 Noroeste 0 -- -- 55
2019-11-07 13:00:00 13.9 22 Noroeste 35 Noroeste 0 -- -- 64
2019-11-07 12:00:00 13.1 23 Noroeste 36 Noroeste 0 -- -- 70
2019-11-07 11:00:00 12.4 23 Noroeste 39 Noroeste 0 -- -- 74
2019-11-07 10:00:00 12.2 22 Noroeste 33 Oeste 0.2 -- -- 85
2019-11-07 09:00:00 11.7 18 Noroeste 38 Noroeste 0.2 -- -- 86
2019-11-07 08:00:00 13.3 22 Noroeste 31 Oeste 0.2 -- -- 95
2019-11-07 07:00:00 12.9 11 Oeste 19 Oeste 1 -- -- 97
2019-11-07 06:00:00 12.6 10 Sudoeste 19 Sudoeste 0.2 -- -- 95
2019-11-07 05:00:00 12.7 12 Oeste 24 Sudoeste 0 -- -- 92
2019-11-07 04:00:00 12.2 13 Sudoeste 21 Sudoeste 0 -- -- 94
2019-11-07 03:00:00 11.9 16 Sudoeste 24 Sudoeste 0 -- -- 93
2019-11-07 02:00:00 12 11 Sudoeste 21 Sudoeste 0 -- -- 88
2019-11-07 01:00:00 12.2 11 Sudoeste 18 Sudoeste 0 -- -- 87
2019-11-07 00:00:00 12.1 10 Sudoeste 17 Oeste 0 -- -- 85
2019-11-06 23:00:00 12.3 10 Oeste 20 Oeste 0 -- -- 85
2019-11-06 22:00:00 12.8 12 Oeste 22 Oeste 0 -- -- 82
2019-11-06 21:00:00 13.5 14 Oeste 25 Noroeste 0 -- -- 77
2019-11-06 20:00:00 13.7 17 Oeste 28 Oeste 0 -- -- 76
2019-11-06 19:00:00 13.9 14 Oeste 27 Noroeste 0 -- -- 72
2019-11-06 18:00:00 14.6 21 Noroeste 35 Oeste 0 -- -- 66
2019-11-06 17:00:00 15.4 21 Noroeste 39 Oeste 0 -- -- 62
2019-11-06 16:00:00 15.8 22 Noroeste 34 Noroeste 0 -- -- 60
2019-11-06 15:00:00 16.3 17 Noroeste 32 Noroeste 0 -- -- 58
2019-11-06 14:00:00 15.9 16 Noroeste 27 Noroeste 0 -- -- 59
2019-11-06 13:00:00 15.1 15 Noroeste 29 Oeste 0 -- -- 58
2019-11-06 12:00:00 14.1 17 Noroeste 26 Oeste 0 -- -- 64
2019-11-06 11:00:00 12.1 17 Oeste 26 Noroeste 0 -- -- 80
2019-11-06 10:00:00 10.1 14 Oeste 22 Oeste 0 -- -- 88
2019-11-06 09:00:00 8 10 Oeste 18 Oeste 0 -- -- 97
2019-11-06 08:00:00 7.9 13 Oeste 21 Oeste 0 -- -- 97
2019-11-06 07:00:00 8.6 13 Oeste 23 Noroeste 0 -- -- 97
2019-11-06 06:00:00 8.6 14 Oeste 22 Oeste 0 -- -- 97
2019-11-06 05:00:00 8.8 14 Oeste 24 Oeste 0 -- -- 97
2019-11-06 04:00:00 8.1 11 Oeste 21 Oeste 0 -- -- 95
2019-11-06 03:00:00 8.6 14 Oeste 24 Oeste 0 -- -- 94
2019-11-06 02:00:00 9.3 17 Oeste 26 Oeste 0 -- -- 92
2019-11-06 01:00:00 9.6 16 Oeste 27 Noroeste 0 -- -- 91
2019-11-06 00:00:00 10.2 21 Oeste 30 Oeste 0 -- -- 90